sensor_id;sensor_type;location;lat;lon;timestamp;P1;durP1;ratioP1;P2;durP2;ratioP2
13816;SDS011;6979;52.116;5.286;2023-01-10T00:02:08;7.27;;;3.10;;
13816;SDS011;6979;52.116;5.286;2023-01-10T00:04:35;4.53;;;2.50;;
13816;SDS011;6979;52.116;5.286;2023-01-10T00:07:02;5.60;;;2.70;;
13816;SDS011;6979;52.116;5.286;2023-01-10T00:09:29;8.10;;;2.63;;
13816;SDS011;6979;52.116;5.286;2023-01-10T00:11:55;7.43;;;2.57;;
13816;SDS011;6979;52.116;5.286;2023-01-10T00:14:41;5.20;;;2.57;;
13816;SDS011;6979;52.116;5.286;2023-01-10T00:17:08;7.93;;;3.13;;
13816;SDS011;6979;52.116;5.286;2023-01-10T00:19:35;5.47;;;2.47;;
13816;SDS011;6979;52.116;5.286;2023-01-10T00:22:02;11.47;;;2.63;;
13816;SDS011;6979;52.116;5.286;2023-01-10T00:24:45;5.67;;;2.57;;
13816;SDS011;6979;52.116;5.286;2023-01-10T00:27:12;10.37;;;2.83;;
13816;SDS011;6979;52.116;5.286;2023-01-10T00:29:46;8.23;;;2.70;;
13816;SDS011;6979;52.116;5.286;2023-01-10T00:32:15;10.70;;;2.47;;
13816;SDS011;6979;52.116;5.286;2023-01-10T00:34:42;8.80;;;3.73;;
13816;SDS011;6979;52.116;5.286;2023-01-10T00:37:08;6.33;;;2.60;;
13816;SDS011;6979;52.116;5.286;2023-01-10T00:39:35;6.60;;;2.37;;
13816;SDS011;6979;52.116;5.286;2023-01-10T00:42:02;8.17;;;2.33;;
13816;SDS011;6979;52.116;5.286;2023-01-10T00:44:53;5.43;;;2.33;;
13816;SDS011;6979;52.116;5.286;2023-01-10T00:47:20;8.07;;;2.90;;
13816;SDS011;6979;52.116;5.286;2023-01-10T00:49:47;4.33;;;2.47;;
13816;SDS011;6979;52.116;5.286;2023-01-10T00:52:14;9.57;;;3.00;;
13816;SDS011;6979;52.116;5.286;2023-01-10T00:54:41;6.60;;;2.37;;
13816;SDS011;6979;52.116;5.286;2023-01-10T00:57:07;6.10;;;2.43;;
13816;SDS011;6979;52.116;5.286;2023-01-10T00:59:34;7.53;;;3.00;;
13816;SDS011;6979;52.116;5.286;2023-01-10T01:02:02;8.43;;;2.63;;
13816;SDS011;6979;52.116;5.286;2023-01-10T01:04:29;8.33;;;3.37;;
13816;SDS011;6979;52.116;5.286;2023-01-10T01:06:58;6.07;;;3.00;;
13816;SDS011;6979;52.116;5.286;2023-01-10T01:09:25;7.03;;;2.60;;
13816;SDS011;6979;52.116;5.286;2023-01-10T01:11:52;9.80;;;2.73;;
13816;SDS011;6979;52.116;5.286;2023-01-10T01:14:20;7.60;;;2.83;;
13816;SDS011;6979;52.116;5.286;2023-01-10T01:16:47;6.60;;;2.40;;
13816;SDS011;6979;52.116;5.286;2023-01-10T01:19:15;6.37;;;2.23;;
13816;SDS011;6979;52.116;5.286;2023-01-10T01:21:42;8.77;;;3.20;;
13816;SDS011;6979;52.116;5.286;2023-01-10T01:24:09;5.67;;;2.43;;
13816;SDS011;6979;52.116;5.286;2023-01-10T01:26:36;11.00;;;3.63;;
13816;SDS011;6979;52.116;5.286;2023-01-10T01:29:03;6.83;;;2.70;;
13816;SDS011;6979;52.116;5.286;2023-01-10T01:31:31;7.33;;;2.40;;
13816;SDS011;6979;52.116;5.286;2023-01-10T01:33:57;8.67;;;2.73;;
13816;SDS011;6979;52.116;5.286;2023-01-10T01:36:26;8.20;;;2.30;;
13816;SDS011;6979;52.116;5.286;2023-01-10T01:38:52;7.63;;;2.30;;
13816;SDS011;6979;52.116;5.286;2023-01-10T01:41:19;9.53;;;2.93;;
13816;SDS011;6979;52.116;5.286;2023-01-10T01:44:04;4.87;;;2.70;;
13816;SDS011;6979;52.116;5.286;2023-01-10T01:46:32;5.33;;;2.43;;
13816;SDS011;6979;52.116;5.286;2023-01-10T01:49:02;7.57;;;2.23;;
13816;SDS011;6979;52.116;5.286;2023-01-10T01:51:32;9.53;;;3.30;;
13816;SDS011;6979;52.116;5.286;2023-01-10T01:54:00;8.27;;;2.73;;
13816;SDS011;6979;52.116;5.286;2023-01-10T01:56:32;6.20;;;2.30;;
13816;SDS011;6979;52.116;5.286;2023-01-10T01:59:05;5.70;;;2.20;;
13816;SDS011;6979;52.116;5.286;2023-01-10T02:01:36;4.90;;;2.07;;
13816;SDS011;6979;52.116;5.286;2023-01-10T02:04:07;6.43;;;2.40;;
13816;SDS011;6979;52.116;5.286;2023-01-10T02:06:37;8.87;;;3.10;;
13816;SDS011;6979;52.116;5.286;2023-01-10T02:09:07;6.20;;;2.70;;
13816;SDS011;6979;52.116;5.286;2023-01-10T02:11:37;4.50;;;2.20;;
13816;SDS011;6979;52.116;5.286;2023-01-10T02:14:04;7.93;;;2.63;;
13816;SDS011;6979;52.116;5.286;2023-01-10T02:16:33;8.23;;;2.27;;
13816;SDS011;6979;52.116;5.286;2023-01-10T02:19:00;5.77;;;2.33;;
13816;SDS011;6979;52.116;5.286;2023-01-10T02:21:33;4.37;;;2.50;;
13816;SDS011;6979;52.116;5.286;2023-01-10T02:24:40;6.70;;;2.90;;
13816;SDS011;6979;52.116;5.286;2023-01-10T02:27:21;10.77;;;3.53;;
13816;SDS011;6979;52.116;5.286;2023-01-10T02:32:56;6.83;;;2.63;;
13816;SDS011;6979;52.116;5.286;2023-01-10T02:35:29;6.43;;;2.80;;
13816;SDS011;6979;52.116;5.286;2023-01-10T02:38:08;9.07;;;2.53;;
13816;SDS011;6979;52.116;5.286;2023-01-10T02:40:44;7.20;;;2.50;;
13816;SDS011;6979;52.116;5.286;2023-01-10T02:43:18;11.33;;;3.30;;
13816;SDS011;6979;52.116;5.286;2023-01-10T02:45:49;8.37;;;2.50;;
13816;SDS011;6979;52.116;5.286;2023-01-10T02:48:22;6.07;;;2.27;;
13816;SDS011;6979;52.116;5.286;2023-01-10T02:50:51;8.70;;;2.50;;
13816;SDS011;6979;52.116;5.286;2023-01-10T02:53:22;6.30;;;2.50;;
13816;SDS011;6979;52.116;5.286;2023-01-10T02:55:56;9.43;;;3.23;;
13816;SDS011;6979;52.116;5.286;2023-01-10T02:58:37;7.97;;;2.90;;
13816;SDS011;6979;52.116;5.286;2023-01-10T03:01:12;6.60;;;2.50;;
13816;SDS011;6979;52.116;5.286;2023-01-10T03:03:49;5.87;;;3.20;;
13816;SDS011;6979;52.116;5.286;2023-01-10T03:06:24;8.67;;;2.67;;
13816;SDS011;6979;52.116;5.286;2023-01-10T03:09:01;9.07;;;2.50;;
13816;SDS011;6979;52.116;5.286;2023-01-10T03:11:34;5.87;;;2.23;;
13816;SDS011;6979;52.116;5.286;2023-01-10T03:14:10;5.60;;;2.60;;
13816;SDS011;6979;52.116;5.286;2023-01-10T03:16:41;5.40;;;2.90;;
13816;SDS011;6979;52.116;5.286;2023-01-10T03:19:13;9.50;;;2.67;;
13816;SDS011;6979;52.116;5.286;2023-01-10T03:21:43;11.60;;;3.43;;
13816;SDS011;6979;52.116;5.286;2023-01-10T03:24:12;8.73;;;4.57;;
13816;SDS011;6979;52.116;5.286;2023-01-10T03:26:43;4.80;;;2.13;;
13816;SDS011;6979;52.116;5.286;2023-01-10T03:29:15;8.47;;;3.60;;
13816;SDS011;6979;52.116;5.286;2023-01-10T03:31:49;9.53;;;3.37;;
13816;SDS011;6979;52.116;5.286;2023-01-10T03:34:19;18.87;;;4.40;;
13816;SDS011;6979;52.116;5.286;2023-01-10T03:36:49;8.93;;;3.20;;
13816;SDS011;6979;52.116;5.286;2023-01-10T03:39:22;9.67;;;4.17;;
13816;SDS011;6979;52.116;5.286;2023-01-10T03:41:58;6.70;;;3.20;;
13816;SDS011;6979;52.116;5.286;2023-01-10T03:44:31;7.37;;;3.03;;
13816;SDS011;6979;52.116;5.286;2023-01-10T03:47:08;11.70;;;3.50;;
13816;SDS011;6979;52.116;5.286;2023-01-10T03:49:40;8.10;;;2.87;;
13816;SDS011;6979;52.116;5.286;2023-01-10T03:52:12;11.80;;;3.90;;
13816;SDS011;6979;52.116;5.286;2023-01-10T03:54:41;12.30;;;4.47;;
13816;SDS011;6979;52.116;5.286;2023-01-10T03:57:13;7.93;;;3.03;;
13816;SDS011;6979;52.116;5.286;2023-01-10T03:59:41;14.13;;;4.03;;
13816;SDS011;6979;52.116;5.286;2023-01-10T04:02:09;14.07;;;4.00;;
13816;SDS011;6979;52.116;5.286;2023-01-10T04:04:36;11.30;;;3.87;;
13816;SDS011;6979;52.116;5.286;2023-01-10T04:07:04;10.90;;;3.10;;
13816;SDS011;6979;52.116;5.286;2023-01-10T04:09:31;7.27;;;3.20;;
13816;SDS011;6979;52.116;5.286;2023-01-10T04:11:58;11.47;;;3.37;;
13816;SDS011;6979;52.116;5.286;2023-01-10T04:14:24;10.67;;;5.23;;
13816;SDS011;6979;52.116;5.286;2023-01-10T04:16:52;11.03;;;5.03;;
13816;SDS011;6979;52.116;5.286;2023-01-10T04:19:19;8.60;;;3.77;;
13816;SDS011;6979;52.116;5.286;2023-01-10T04:21:46;15.13;;;4.07;;
13816;SDS011;6979;52.116;5.286;2023-01-10T04:24:14;7.37;;;2.80;;
13816;SDS011;6979;52.116;5.286;2023-01-10T04:26:41;7.90;;;3.73;;
13816;SDS011;6979;52.116;5.286;2023-01-10T04:29:08;11.37;;;3.37;;
13816;SDS011;6979;52.116;5.286;2023-01-10T04:31:35;5.73;;;2.70;;
13816;SDS011;6979;52.116;5.286;2023-01-10T04:34:04;7.47;;;3.20;;
13816;SDS011;6979;52.116;5.286;2023-01-10T04:36:31;10.60;;;2.83;;
13816;SDS011;6979;52.116;5.286;2023-01-10T04:38:57;11.20;;;3.47;;
13816;SDS011;6979;52.116;5.286;2023-01-10T04:41:26;7.27;;;2.93;;
13816;SDS011;6979;52.116;5.286;2023-01-10T04:43:53;11.13;;;3.77;;
13816;SDS011;6979;52.116;5.286;2023-01-10T04:46:20;7.33;;;3.70;;
13816;SDS011;6979;52.116;5.286;2023-01-10T04:48:47;10.67;;;3.37;;
13816;SDS011;6979;52.116;5.286;2023-01-10T04:51:13;8.17;;;3.73;;
13816;SDS011;6979;52.116;5.286;2023-01-10T04:53:40;5.17;;;2.60;;
13816;SDS011;6979;52.116;5.286;2023-01-10T04:56:14;15.07;;;4.00;;
13816;SDS011;6979;52.116;5.286;2023-01-10T04:58:44;11.77;;;3.03;;
13816;SDS011;6979;52.116;5.286;2023-01-10T05:01:12;11.03;;;3.63;;
13816;SDS011;6979;52.116;5.286;2023-01-10T05:03:40;11.90;;;3.63;;
13816;SDS011;6979;52.116;5.286;2023-01-10T05:06:07;9.10;;;3.63;;
13816;SDS011;6979;52.116;5.286;2023-01-10T05:08:34;10.43;;;3.37;;
13816;SDS011;6979;52.116;5.286;2023-01-10T05:11:01;9.47;;;2.87;;
13816;SDS011;6979;52.116;5.286;2023-01-10T05:13:28;9.03;;;3.47;;
13816;SDS011;6979;52.116;5.286;2023-01-10T05:15:56;8.93;;;2.97;;
13816;SDS011;6979;52.116;5.286;2023-01-10T05:18:23;11.20;;;4.03;;
13816;SDS011;6979;52.116;5.286;2023-01-10T05:20:50;9.70;;;3.60;;
13816;SDS011;6979;52.116;5.286;2023-01-10T05:23:17;11.43;;;4.27;;
13816;SDS011;6979;52.116;5.286;2023-01-10T05:25:44;8.07;;;3.00;;
13816;SDS011;6979;52.116;5.286;2023-01-10T05:28:11;10.60;;;3.87;;
13816;SDS011;6979;52.116;5.286;2023-01-10T05:30:38;10.37;;;3.07;;
13816;SDS011;6979;52.116;5.286;2023-01-10T05:33:06;7.67;;;3.20;;
13816;SDS011;6979;52.116;5.286;2023-01-10T05:35:33;9.07;;;2.90;;
13816;SDS011;6979;52.116;5.286;2023-01-10T05:38:00;8.97;;;3.37;;
13816;SDS011;6979;52.116;5.286;2023-01-10T05:40:27;7.23;;;2.70;;
13816;SDS011;6979;52.116;5.286;2023-01-10T05:42:54;8.03;;;2.40;;
13816;SDS011;6979;52.116;5.286;2023-01-10T05:45:21;10.90;;;3.20;;
13816;SDS011;6979;52.116;5.286;2023-01-10T05:47:47;6.57;;;2.97;;
13816;SDS011;6979;52.116;5.286;2023-01-10T05:50:16;6.30;;;2.90;;
13816;SDS011;6979;52.116;5.286;2023-01-10T05:52:43;8.97;;;3.03;;
13816;SDS011;6979;52.116;5.286;2023-01-10T05:55:09;6.13;;;2.37;;
13816;SDS011;6979;52.116;5.286;2023-01-10T05:57:36;11.27;;;3.63;;
13816;SDS011;6979;52.116;5.286;2023-01-10T06:00:04;6.33;;;2.67;;
13816;SDS011;6979;52.116;5.286;2023-01-10T06:02:36;4.80;;;2.70;;
13816;SDS011;6979;52.116;5.286;2023-01-10T06:05:04;5.43;;;2.40;;
13816;SDS011;6979;52.116;5.286;2023-01-10T06:07:32;13.97;;;3.77;;
13816;SDS011;6979;52.116;5.286;2023-01-10T06:09:59;6.73;;;3.07;;
13816;SDS011;6979;52.116;5.286;2023-01-10T06:12:26;9.00;;;3.57;;
13816;SDS011;6979;52.116;5.286;2023-01-10T06:14:53;8.60;;;3.17;;
13816;SDS011;6979;52.116;5.286;2023-01-10T06:17:20;8.30;;;3.63;;
13816;SDS011;6979;52.116;5.286;2023-01-10T06:19:47;9.07;;;3.90;;
13816;SDS011;6979;52.116;5.286;2023-01-10T06:22:16;9.73;;;2.90;;
13816;SDS011;6979;52.116;5.286;2023-01-10T06:24:44;12.10;;;3.63;;
13816;SDS011;6979;52.116;5.286;2023-01-10T06:27:11;10.57;;;3.43;;
13816;SDS011;6979;52.116;5.286;2023-01-10T06:29:38;12.83;;;3.50;;
13816;SDS011;6979;52.116;5.286;2023-01-10T06:32:04;12.40;;;4.13;;
13816;SDS011;6979;52.116;5.286;2023-01-10T06:34:31;12.50;;;3.63;;
13816;SDS011;6979;52.116;5.286;2023-01-10T06:37:09;13.50;;;4.27;;
13816;SDS011;6979;52.116;5.286;2023-01-10T06:39:38;7.43;;;3.57;;
13816;SDS011;6979;52.116;5.286;2023-01-10T06:42:06;11.40;;;3.43;;
13816;SDS011;6979;52.116;5.286;2023-01-10T06:44:33;10.30;;;4.57;;
13816;SDS011;6979;52.116;5.286;2023-01-10T06:47:00;14.17;;;3.97;;
13816;SDS011;6979;52.116;5.286;2023-01-10T06:49:27;12.00;;;3.50;;
13816;SDS011;6979;52.116;5.286;2023-01-10T06:51:54;9.00;;;3.27;;
13816;SDS011;6979;52.116;5.286;2023-01-10T06:54:21;9.73;;;4.00;;
13816;SDS011;6979;52.116;5.286;2023-01-10T06:56:49;19.07;;;4.20;;
13816;SDS011;6979;52.116;5.286;2023-01-10T06:59:17;15.70;;;4.17;;
13816;SDS011;6979;52.116;5.286;2023-01-10T07:01:44;15.37;;;4.07;;
13816;SDS011;6979;52.116;5.286;2023-01-10T07:04:11;12.77;;;4.73;;
13816;SDS011;6979;52.116;5.286;2023-01-10T07:06:38;14.57;;;4.70;;
13816;SDS011;6979;52.116;5.286;2023-01-10T07:09:06;7.97;;;4.17;;
13816;SDS011;6979;52.116;5.286;2023-01-10T07:11:33;8.87;;;4.00;;
13816;SDS011;6979;52.116;5.286;2023-01-10T07:14:01;14.33;;;4.23;;
13816;SDS011;6979;52.116;5.286;2023-01-10T07:16:30;11.30;;;4.20;;
13816;SDS011;6979;52.116;5.286;2023-01-10T07:18:58;11.57;;;3.40;;
13816;SDS011;6979;52.116;5.286;2023-01-10T07:21:25;12.63;;;4.50;;
13816;SDS011;6979;52.116;5.286;2023-01-10T07:23:52;13.33;;;4.07;;
13816;SDS011;6979;52.116;5.286;2023-01-10T07:26:19;9.63;;;3.50;;
13816;SDS011;6979;52.116;5.286;2023-01-10T07:28:46;13.73;;;4.50;;
13816;SDS011;6979;52.116;5.286;2023-01-10T07:31:15;14.70;;;4.87;;
13816;SDS011;6979;52.116;5.286;2023-01-10T07:33:44;12.77;;;3.97;;
13816;SDS011;6979;52.116;5.286;2023-01-10T07:36:11;12.13;;;4.30;;
13816;SDS011;6979;52.116;5.286;2023-01-10T07:38:38;14.97;;;4.53;;
13816;SDS011;6979;52.116;5.286;2023-01-10T07:41:05;11.00;;;4.50;;
13816;SDS011;6979;52.116;5.286;2023-01-10T07:43:32;13.03;;;4.83;;
13816;SDS011;6979;52.116;5.286;2023-01-10T07:46:00;18.77;;;5.80;;
13816;SDS011;6979;52.116;5.286;2023-01-10T07:48:28;14.53;;;4.40;;
13816;SDS011;6979;52.116;5.286;2023-01-10T07:50:57;12.63;;;4.90;;
13816;SDS011;6979;52.116;5.286;2023-01-10T07:53:26;14.43;;;5.10;;
13816;SDS011;6979;52.116;5.286;2023-01-10T07:55:57;13.97;;;5.20;;
13816;SDS011;6979;52.116;5.286;2023-01-10T07:58:25;10.00;;;4.37;;
13816;SDS011;6979;52.116;5.286;2023-01-10T08:00:55;11.00;;;4.60;;
13816;SDS011;6979;52.116;5.286;2023-01-10T08:03:23;10.70;;;4.50;;
13816;SDS011;6979;52.116;5.286;2023-01-10T08:05:57;11.17;;;4.70;;
13816;SDS011;6979;52.116;5.286;2023-01-10T08:08:25;15.60;;;5.83;;
13816;SDS011;6979;52.116;5.286;2023-01-10T08:10:52;14.50;;;5.47;;
13816;SDS011;6979;52.116;5.286;2023-01-10T08:13:19;13.83;;;4.43;;
13816;SDS011;6979;52.116;5.286;2023-01-10T08:15:45;20.30;;;6.83;;
13816;SDS011;6979;52.116;5.286;2023-01-10T08:18:14;12.83;;;5.37;;
13816;SDS011;6979;52.116;5.286;2023-01-10T08:20:41;16.77;;;7.03;;
13816;SDS011;6979;52.116;5.286;2023-01-10T08:23:09;12.13;;;4.57;;
13816;SDS011;6979;52.116;5.286;2023-01-10T08:25:36;11.80;;;5.20;;
13816;SDS011;6979;52.116;5.286;2023-01-10T08:28:03;19.30;;;5.70;;
13816;SDS011;6979;52.116;5.286;2023-01-10T08:30:30;14.73;;;5.40;;
13816;SDS011;6979;52.116;5.286;2023-01-10T08:32:56;16.70;;;5.73;;
13816;SDS011;6979;52.116;5.286;2023-01-10T08:35:23;14.23;;;5.50;;
13816;SDS011;6979;52.116;5.286;2023-01-10T08:37:50;11.33;;;5.03;;
13816;SDS011;6979;52.116;5.286;2023-01-10T08:40:18;14.67;;;6.50;;
13816;SDS011;6979;52.116;5.286;2023-01-10T08:42:45;14.83;;;6.23;;
13816;SDS011;6979;52.116;5.286;2023-01-10T08:45:12;19.70;;;6.23;;
13816;SDS011;6979;52.116;5.286;2023-01-10T08:47:39;14.43;;;5.13;;
13816;SDS011;6979;52.116;5.286;2023-01-10T08:50:06;11.37;;;4.67;;
13816;SDS011;6979;52.116;5.286;2023-01-10T08:52:34;19.50;;;5.47;;
13816;SDS011;6979;52.116;5.286;2023-01-10T08:55:00;12.53;;;5.43;;
13816;SDS011;6979;52.116;5.286;2023-01-10T08:57:29;20.73;;;5.53;;
13816;SDS011;6979;52.116;5.286;2023-01-10T08:59:56;12.07;;;4.93;;
13816;SDS011;6979;52.116;5.286;2023-01-10T09:02:23;19.37;;;5.60;;
13816;SDS011;6979;52.116;5.286;2023-01-10T09:04:50;14.40;;;5.23;;
13816;SDS011;6979;52.116;5.286;2023-01-10T09:07:16;14.53;;;5.50;;
13816;SDS011;6979;52.116;5.286;2023-01-10T09:09:43;17.53;;;5.77;;
13816;SDS011;6979;52.116;5.286;2023-01-10T09:12:10;14.23;;;5.43;;
13816;SDS011;6979;52.116;5.286;2023-01-10T09:14:56;12.03;;;5.03;;
13816;SDS011;6979;52.116;5.286;2023-01-10T09:17:23;13.80;;;5.07;;
13816;SDS011;6979;52.116;5.286;2023-01-10T09:19:50;13.00;;;5.50;;
13816;SDS011;6979;52.116;5.286;2023-01-10T09:22:17;13.77;;;5.17;;
13816;SDS011;6979;52.116;5.286;2023-01-10T09:24:44;10.00;;;4.67;;
13816;SDS011;6979;52.116;5.286;2023-01-10T09:27:11;14.20;;;5.43;;
13816;SDS011;6979;52.116;5.286;2023-01-10T09:29:37;13.37;;;4.70;;
13816;SDS011;6979;52.116;5.286;2023-01-10T09:32:05;19.60;;;5.90;;
13816;SDS011;6979;52.116;5.286;2023-01-10T09:34:34;12.77;;;5.47;;
13816;SDS011;6979;52.116;5.286;2023-01-10T09:37:00;13.57;;;4.67;;
13816;SDS011;6979;52.116;5.286;2023-01-10T09:39:27;13.87;;;4.67;;
13816;SDS011;6979;52.116;5.286;2023-01-10T09:42:02;12.27;;;4.93;;
13816;SDS011;6979;52.116;5.286;2023-01-10T09:44:40;9.27;;;4.33;;
13816;SDS011;6979;52.116;5.286;2023-01-10T09:47:17;15.03;;;5.67;;
13816;SDS011;6979;52.116;5.286;2023-01-10T09:49:51;13.23;;;5.70;;
13816;SDS011;6979;52.116;5.286;2023-01-10T09:52:32;10.33;;;5.40;;
13816;SDS011;6979;52.116;5.286;2023-01-10T09:55:05;11.57;;;4.80;;
13816;SDS011;6979;52.116;5.286;2023-01-10T09:57:47;16.83;;;5.20;;
13816;SDS011;6979;52.116;5.286;2023-01-10T10:00:16;12.17;;;4.53;;
13816;SDS011;6979;52.116;5.286;2023-01-10T10:02:49;16.83;;;5.40;;
13816;SDS011;6979;52.116;5.286;2023-01-10T10:05:18;15.67;;;4.60;;
13816;SDS011;6979;52.116;5.286;2023-01-10T10:07:50;11.23;;;4.83;;
13816;SDS011;6979;52.116;5.286;2023-01-10T10:10:21;11.70;;;5.03;;
13816;SDS011;6979;52.116;5.286;2023-01-10T10:12:52;15.83;;;4.87;;
13816;SDS011;6979;52.116;5.286;2023-01-10T10:15:31;10.87;;;4.30;;
13816;SDS011;6979;52.116;5.286;2023-01-10T10:18:11;19.07;;;5.20;;
13816;SDS011;6979;52.116;5.286;2023-01-10T10:20:50;12.17;;;4.80;;
13816;SDS011;6979;52.116;5.286;2023-01-10T10:23:27;11.80;;;3.90;;
13816;SDS011;6979;52.116;5.286;2023-01-10T10:26:03;12.50;;;4.07;;
13816;SDS011;6979;52.116;5.286;2023-01-10T10:28:44;12.70;;;5.00;;
13816;SDS011;6979;52.116;5.286;2023-01-10T10:31:33;15.30;;;6.13;;
13816;SDS011;6979;52.116;5.286;2023-01-10T10:34:21;15.27;;;4.83;;
13816;SDS011;6979;52.116;5.286;2023-01-10T10:36:53;9.83;;;3.87;;
13816;SDS011;6979;52.116;5.286;2023-01-10T10:39:27;7.27;;;3.50;;
13816;SDS011;6979;52.116;5.286;2023-01-10T10:41:59;13.97;;;4.83;;
13816;SDS011;6979;52.116;5.286;2023-01-10T10:44:33;14.60;;;4.50;;
13816;SDS011;6979;52.116;5.286;2023-01-10T10:47:08;13.80;;;3.87;;
13816;SDS011;6979;52.116;5.286;2023-01-10T10:49:42;11.13;;;3.60;;
13816;SDS011;6979;52.116;5.286;2023-01-10T10:52:17;14.97;;;4.07;;
13816;SDS011;6979;52.116;5.286;2023-01-10T10:54:49;13.27;;;4.87;;
13816;SDS011;6979;52.116;5.286;2023-01-10T10:57:16;11.23;;;4.50;;
13816;SDS011;6979;52.116;5.286;2023-01-10T10:59:45;10.60;;;3.67;;
13816;SDS011;6979;52.116;5.286;2023-01-10T11:02:21;9.33;;;3.10;;
13816;SDS011;6979;52.116;5.286;2023-01-10T11:04:52;16.80;;;4.00;;
13816;SDS011;6979;52.116;5.286;2023-01-10T11:07:22;11.20;;;4.03;;
13816;SDS011;6979;52.116;5.286;2023-01-10T11:09:51;14.93;;;4.73;;
13816;SDS011;6979;52.116;5.286;2023-01-10T11:12:33;11.17;;;3.93;;
13816;SDS011;6979;52.116;5.286;2023-01-10T11:15:06;11.30;;;3.77;;
13816;SDS011;6979;52.116;5.286;2023-01-10T11:17:33;10.30;;;3.40;;
13816;SDS011;6979;52.116;5.286;2023-01-10T11:20:12;9.03;;;3.43;;
13816;SDS011;6979;52.116;5.286;2023-01-10T11:22:43;10.83;;;4.00;;
13816;SDS011;6979;52.116;5.286;2023-01-10T11:25:13;11.53;;;4.17;;
13816;SDS011;6979;52.116;5.286;2023-01-10T11:27:44;12.77;;;3.93;;
13816;SDS011;6979;52.116;5.286;2023-01-10T11:30:15;12.40;;;3.97;;
13816;SDS011;6979;52.116;5.286;2023-01-10T11:32:50;9.93;;;4.23;;
13816;SDS011;6979;52.116;5.286;2023-01-10T11:35:20;17.10;;;4.53;;
13816;SDS011;6979;52.116;5.286;2023-01-10T11:37:57;11.13;;;4.17;;
13816;SDS011;6979;52.116;5.286;2023-01-10T11:40:25;10.43;;;4.17;;
13816;SDS011;6979;52.116;5.286;2023-01-10T11:42:54;9.53;;;4.20;;
13816;SDS011;6979;52.116;5.286;2023-01-10T11:45:23;9.47;;;3.47;;
13816;SDS011;6979;52.116;5.286;2023-01-10T11:47:59;13.03;;;4.07;;
13816;SDS011;6979;52.116;5.286;2023-01-10T11:50:36;8.20;;;3.20;;
13816;SDS011;6979;52.116;5.286;2023-01-10T11:53:06;8.90;;;3.37;;
13816;SDS011;6979;52.116;5.286;2023-01-10T11:56:03;9.57;;;3.83;;
13816;SDS011;6979;52.116;5.286;2023-01-10T11:58:32;8.03;;;3.63;;
13816;SDS011;6979;52.116;5.286;2023-01-10T12:01:02;10.43;;;3.80;;
13816;SDS011;6979;52.116;5.286;2023-01-10T12:03:30;10.90;;;3.83;;
13816;SDS011;6979;52.116;5.286;2023-01-10T12:06:03;8.07;;;3.23;;
13816;SDS011;6979;52.116;5.286;2023-01-10T12:08:33;12.03;;;4.23;;
13816;SDS011;6979;52.116;5.286;2023-01-10T12:11:02;11.03;;;4.10;;
13816;SDS011;6979;52.116;5.286;2023-01-10T12:13:41;10.57;;;3.50;;
13816;SDS011;6979;52.116;5.286;2023-01-10T12:16:16;9.63;;;3.23;;
13816;SDS011;6979;52.116;5.286;2023-01-10T12:18:46;10.60;;;3.37;;
13816;SDS011;6979;52.116;5.286;2023-01-10T12:21:16;10.20;;;4.07;;
13816;SDS011;6979;52.116;5.286;2023-01-10T12:23:48;10.10;;;3.67;;
13816;SDS011;6979;52.116;5.286;2023-01-10T12:26:16;9.50;;;3.70;;
13816;SDS011;6979;52.116;5.286;2023-01-10T12:28:46;13.70;;;4.10;;
13816;SDS011;6979;52.116;5.286;2023-01-10T12:31:17;9.47;;;4.30;;
13816;SDS011;6979;52.116;5.286;2023-01-10T12:33:48;10.67;;;4.37;;
13816;SDS011;6979;52.116;5.286;2023-01-10T12:36:28;13.07;;;3.37;;
13816;SDS011;6979;52.116;5.286;2023-01-10T12:39:02;12.93;;;4.40;;
13816;SDS011;6979;52.116;5.286;2023-01-10T12:41:43;14.27;;;5.20;;
13816;SDS011;6979;52.116;5.286;2023-01-10T12:44:33;12.13;;;3.67;;
13816;SDS011;6979;52.116;5.286;2023-01-10T12:47:04;8.73;;;4.70;;
13816;SDS011;6979;52.116;5.286;2023-01-10T12:49:37;11.43;;;3.60;;
13816;SDS011;6979;52.116;5.286;2023-01-10T12:52:13;8.73;;;3.23;;
13816;SDS011;6979;52.116;5.286;2023-01-10T12:54:44;10.53;;;4.47;;
13816;SDS011;6979;52.116;5.286;2023-01-10T12:57:15;11.63;;;4.30;;
13816;SDS011;6979;52.116;5.286;2023-01-10T12:59:47;8.77;;;3.93;;
13816;SDS011;6979;52.116;5.286;2023-01-10T13:02:17;9.03;;;4.20;;
13816;SDS011;6979;52.116;5.286;2023-01-10T13:04:48;14.20;;;4.80;;
13816;SDS011;6979;52.116;5.286;2023-01-10T13:07:19;10.93;;;4.00;;
13816;SDS011;6979;52.116;5.286;2023-01-10T13:09:57;10.93;;;3.77;;
13816;SDS011;6979;52.116;5.286;2023-01-10T13:12:27;12.67;;;4.37;;
13816;SDS011;6979;52.116;5.286;2023-01-10T13:15:00;8.47;;;4.00;;
13816;SDS011;6979;52.116;5.286;2023-01-10T13:17:35;9.20;;;3.53;;
13816;SDS011;6979;52.116;5.286;2023-01-10T13:20:26;15.90;;;5.60;;
13816;SDS011;6979;52.116;5.286;2023-01-10T13:22:57;14.17;;;4.17;;
13816;SDS011;6979;52.116;5.286;2023-01-10T13:25:26;10.07;;;3.67;;
13816;SDS011;6979;52.116;5.286;2023-01-10T13:27:54;12.43;;;5.27;;
13816;SDS011;6979;52.116;5.286;2023-01-10T13:30:25;11.57;;;4.33;;
13816;SDS011;6979;52.116;5.286;2023-01-10T13:32:59;9.63;;;3.37;;
13816;SDS011;6979;52.116;5.286;2023-01-10T13:35:34;8.23;;;3.50;;
13816;SDS011;6979;52.116;5.286;2023-01-10T13:38:05;13.40;;;4.47;;
13816;SDS011;6979;52.116;5.286;2023-01-10T13:40:41;11.60;;;3.87;;
13816;SDS011;6979;52.116;5.286;2023-01-10T13:43:29;10.63;;;3.40;;
13816;SDS011;6979;52.116;5.286;2023-01-10T13:54:58;15.70;;;4.10;;
13816;SDS011;6979;52.116;5.286;2023-01-10T14:00:21;12.07;;;4.03;;
13816;SDS011;6979;52.116;5.286;2023-01-10T14:03:37;13.60;;;3.57;;
13816;SDS011;6979;52.116;5.286;2023-01-10T14:06:07;15.63;;;4.17;;
13816;SDS011;6979;52.116;5.286;2023-01-10T14:08:50;10.83;;;4.40;;
13816;SDS011;6979;52.116;5.286;2023-01-10T14:11:20;9.93;;;4.87;;
13816;SDS011;6979;52.116;5.286;2023-01-10T14:13:51;7.30;;;3.40;;
13816;SDS011;6979;52.116;5.286;2023-01-10T14:16:27;14.20;;;4.13;;
13816;SDS011;6979;52.116;5.286;2023-01-10T14:19:06;16.43;;;4.67;;
13816;SDS011;6979;52.116;5.286;2023-01-10T14:21:44;9.43;;;4.67;;
13816;SDS011;6979;52.116;5.286;2023-01-10T14:24:19;9.80;;;4.30;;
13816;SDS011;6979;52.116;5.286;2023-01-10T14:26:52;12.97;;;4.77;;
13816;SDS011;6979;52.116;5.286;2023-01-10T14:29:21;9.63;;;4.20;;
13816;SDS011;6979;52.116;5.286;2023-01-10T14:31:48;10.30;;;3.97;;
13816;SDS011;6979;52.116;5.286;2023-01-10T14:34:18;10.13;;;3.93;;
13816;SDS011;6979;52.116;5.286;2023-01-10T14:36:48;12.70;;;4.37;;
13816;SDS011;6979;52.116;5.286;2023-01-10T14:39:18;11.07;;;3.87;;
13816;SDS011;6979;52.116;5.286;2023-01-10T14:41:47;8.57;;;3.90;;
13816;SDS011;6979;52.116;5.286;2023-01-10T14:44:20;9.00;;;4.00;;
13816;SDS011;6979;52.116;5.286;2023-01-10T14:46:52;13.77;;;4.97;;
13816;SDS011;6979;52.116;5.286;2023-01-10T14:49:21;15.60;;;4.33;;
13816;SDS011;6979;52.116;5.286;2023-01-10T14:51:50;13.63;;;3.77;;
13816;SDS011;6979;52.116;5.286;2023-01-10T14:54:18;10.93;;;3.93;;
13816;SDS011;6979;52.116;5.286;2023-01-10T14:56:46;8.17;;;3.77;;
13816;SDS011;6979;52.116;5.286;2023-01-10T14:59:21;14.23;;;3.90;;
13816;SDS011;6979;52.116;5.286;2023-01-10T15:01:50;8.23;;;4.03;;
13816;SDS011;6979;52.116;5.286;2023-01-10T15:04:19;14.10;;;3.37;;
13816;SDS011;6979;52.116;5.286;2023-01-10T15:06:51;11.50;;;4.67;;
13816;SDS011;6979;52.116;5.286;2023-01-10T15:09:20;11.33;;;4.10;;
13816;SDS011;6979;52.116;5.286;2023-01-10T15:11:47;10.17;;;4.20;;
13816;SDS011;6979;52.116;5.286;2023-01-10T15:14:16;11.27;;;3.57;;
13816;SDS011;6979;52.116;5.286;2023-01-10T15:16:48;8.10;;;4.03;;
13816;SDS011;6979;52.116;5.286;2023-01-10T15:19:18;7.03;;;3.17;;
13816;SDS011;6979;52.116;5.286;2023-01-10T15:21:47;10.13;;;4.13;;
13816;SDS011;6979;52.116;5.286;2023-01-10T15:24:28;11.27;;;3.40;;
13816;SDS011;6979;52.116;5.286;2023-01-10T15:26:58;11.70;;;4.27;;
13816;SDS011;6979;52.116;5.286;2023-01-10T15:29:26;9.27;;;3.30;;